EFW79YW EGKK-LEIB
Flight info
| Callsign | EFW79YW |
|---|---|
| Flight time | N/A |
| Altitude | 35000 |
| Route | SFD4Z SFD Y47 DRAKE L151 SITET UN859 SOPIL DCT BALAN DCT EVPOK DCT NARAK DCT GAI DCT LOMRA DCT ROCAN DCT PUMAL DCT XEPLA DCT BCN DCT CORDA CORDA3V |
| Aircraft | A321/M-SDE3FGIJ1KRWXY/SB1 |
Departure
| Time | N/A |
|---|---|
| Airport | London Gatwick Airport (EGKK) |
Arrival
| Time | 2026-05-06 19:58 |
|---|---|
| Airport | Ibiza Airport (LEIB) |
| Time | Latitude | Longitude | Altitude | Speed | Heading |
|---|---|---|---|---|---|
| 2026-05-06 18:17 | 50.01433 | 0.03372 | 23596 ft | 442 kts | 167° |
| 2026-05-06 18:18 | 49.98439 | 0.04561 | 23866 ft | 445 kts | 167° |
| 2026-05-06 18:18 | 49.95441 | 0.05738 | 24159 ft | 446 kts | 167° |
| 2026-05-06 18:18 | 49.92425 | 0.06921 | 24481 ft | 447 kts | 167° |
| 2026-05-06 18:18 | 49.89410 | 0.08104 | 24775 ft | 449 kts | 167° |
| 2026-05-06 18:19 | 49.86374 | 0.09298 | 25080 ft | 450 kts | 167° |
| 2026-05-06 18:19 | 49.83328 | 0.10492 | 25365 ft | 452 kts | 167° |
| 2026-05-06 18:19 | 49.80269 | 0.11690 | 25651 ft | 454 kts | 167° |
| 2026-05-06 18:19 | 49.77198 | 0.12886 | 25927 ft | 455 kts | 167° |
| 2026-05-06 18:20 | 49.74126 | 0.14079 | 26211 ft | 457 kts | 167° |
| 2026-05-06 18:20 | 49.71035 | 0.15278 | 26491 ft | 458 kts | 167° |
| 2026-05-06 18:20 | 49.67936 | 0.16479 | 26760 ft | 459 kts | 167° |
| 2026-05-06 18:20 | 49.64842 | 0.17698 | 27000 ft | 461 kts | 166° |
| 2026-05-06 18:21 | 49.61730 | 0.18948 | 27233 ft | 462 kts | 166° |
| 2026-05-06 18:21 | 49.58653 | 0.20200 | 27452 ft | 464 kts | 166° |
| 2026-05-06 18:21 | 49.55528 | 0.21475 | 27696 ft | 464 kts | 166° |
| 2026-05-06 18:21 | 49.52406 | 0.22746 | 28005 ft | 463 kts | 166° |
| 2026-05-06 18:22 | 49.49290 | 0.24007 | 28328 ft | 462 kts | 166° |
| 2026-05-06 18:22 | 49.46178 | 0.25258 | 28632 ft | 461 kts | 166° |
| 2026-05-06 18:22 | 49.43071 | 0.26498 | 28939 ft | 460 kts | 166° |
| 2026-05-06 18:22 | 49.39978 | 0.27729 | 29235 ft | 460 kts | 167° |
| 2026-05-06 18:23 | 49.36879 | 0.28961 | 29547 ft | 459 kts | 167° |
| 2026-05-06 18:23 | 49.33785 | 0.30190 | 29856 ft | 458 kts | 167° |
| 2026-05-06 18:23 | 49.30696 | 0.31418 | 30137 ft | 458 kts | 166° |
| 2026-05-06 18:23 | 49.27666 | 0.32653 | 30367 ft | 458 kts | 166° |
| 2026-05-06 18:24 | 49.24591 | 0.33947 | 30589 ft | 458 kts | 165° |
| 2026-05-06 18:24 | 49.21488 | 0.35269 | 30799 ft | 458 kts | 165° |
| 2026-05-06 18:24 | 49.18413 | 0.36583 | 30993 ft | 459 kts | 165° |
| 2026-05-06 18:24 | 49.15377 | 0.37876 | 31201 ft | 459 kts | 165° |
| 2026-05-06 18:25 | 49.12293 | 0.39182 | 31400 ft | 460 kts | 165° |
| 2026-05-06 18:25 | 49.09207 | 0.40482 | 31628 ft | 459 kts | 165° |
| 2026-05-06 18:25 | 49.06122 | 0.41778 | 31830 ft | 460 kts | 165° |
| 2026-05-06 18:25 | 49.03033 | 0.43072 | 32052 ft | 460 kts | 165° |
| 2026-05-06 18:26 | 48.99954 | 0.44359 | 32271 ft | 460 kts | 165° |
| 2026-05-06 18:26 | 48.96860 | 0.45644 | 32446 ft | 461 kts | 165° |
| 2026-05-06 18:26 | 48.93763 | 0.46930 | 32657 ft | 461 kts | 165° |
| 2026-05-06 18:26 | 48.90665 | 0.48214 | 32851 ft | 461 kts | 165° |
| 2026-05-06 18:27 | 48.87574 | 0.49490 | 33087 ft | 461 kts | 165° |
| 2026-05-06 18:27 | 48.84479 | 0.50769 | 33303 ft | 460 kts | 165° |
| 2026-05-06 18:27 | 48.81388 | 0.52053 | 33535 ft | 460 kts | 165° |
| 2026-05-06 18:27 | 48.78343 | 0.53319 | 33756 ft | 459 kts | 165° |
| 2026-05-06 18:28 | 48.75254 | 0.54576 | 33954 ft | 459 kts | 165° |
| 2026-05-06 18:28 | 48.72159 | 0.55800 | 34122 ft | 459 kts | 166° |
| 2026-05-06 18:28 | 48.69061 | 0.57005 | 34281 ft | 459 kts | 166° |
| 2026-05-06 18:28 | 48.65962 | 0.58198 | 34446 ft | 459 kts | 166° |
| 2026-05-06 18:29 | 48.62864 | 0.59385 | 34607 ft | 459 kts | 166° |
| 2026-05-06 18:29 | 48.59769 | 0.60578 | 34773 ft | 458 kts | 166° |
| 2026-05-06 18:29 | 48.56688 | 0.61774 | 34927 ft | 458 kts | 166° |
| 2026-05-06 18:29 | 48.53590 | 0.62983 | 34972 ft | 460 kts | 166° |
| 2026-05-06 18:30 | 48.47426 | 0.65435 | 34978 ft | 461 kts | 165° |
| 2026-05-06 18:30 | 48.41231 | 0.67977 | 34977 ft | 461 kts | 165° |
| 2026-05-06 18:31 | 48.35040 | 0.70509 | 34972 ft | 460 kts | 165° |
| 2026-05-06 18:31 | 48.28859 | 0.73015 | 34970 ft | 460 kts | 165° |
| 2026-05-06 18:32 | 48.22661 | 0.75510 | 34977 ft | 461 kts | 166° |
| 2026-05-06 18:32 | 48.16459 | 0.77962 | 34975 ft | 461 kts | 166° |
| 2026-05-06 18:33 | 48.10237 | 0.80382 | 34980 ft | 462 kts | 166° |
| 2026-05-06 18:33 | 48.04021 | 0.82802 | 34980 ft | 462 kts | 166° |
| 2026-05-06 18:34 | 47.97837 | 0.85225 | 34981 ft | 462 kts | 166° |
| 2026-05-06 18:34 | 47.91605 | 0.87655 | 34980 ft | 463 kts | 166° |
| 2026-05-06 18:35 | 47.85374 | 0.90075 | 34978 ft | 463 kts | 166° |
| 2026-05-06 18:35 | 47.79131 | 0.92497 | 34974 ft | 463 kts | 166° |
| 2026-05-06 18:36 | 47.72901 | 0.94921 | 34972 ft | 463 kts | 166° |
| 2026-05-06 18:36 | 47.66657 | 0.97336 | 34972 ft | 463 kts | 166° |
| 2026-05-06 18:37 | 47.61468 | 0.99327 | 34975 ft | 463 kts | 166° |
| 2026-05-06 18:37 | 47.54182 | 1.02123 | 34968 ft | 463 kts | 166° |
| 2026-05-06 18:38 | 47.47935 | 1.04514 | 34971 ft | 463 kts | 166° |
| 2026-05-06 18:38 | 47.41623 | 1.06313 | 34970 ft | 461 kts | 178° |
| 2026-05-06 18:39 | 47.35265 | 1.06262 | 34968 ft | 460 kts | 182° |
| 2026-05-06 18:40 | 47.25652 | 1.06031 | 34969 ft | 461 kts | 182° |
| 2026-05-06 18:40 | 47.19242 | 1.05883 | 34971 ft | 461 kts | 182° |
| 2026-05-06 18:41 | 47.12821 | 1.05737 | 34970 ft | 461 kts | 182° |
| 2026-05-06 18:41 | 47.06399 | 1.05582 | 34972 ft | 461 kts | 182° |
| 2026-05-06 18:42 | 46.99975 | 1.05423 | 34974 ft | 461 kts | 182° |
| 2026-05-06 18:42 | 46.93560 | 1.05162 | 34974 ft | 461 kts | 183° |
| 2026-05-06 18:43 | 46.87168 | 1.04855 | 34978 ft | 461 kts | 183° |
| 2026-05-06 18:43 | 46.80757 | 1.04557 | 34980 ft | 461 kts | 183° |
| 2026-05-06 18:44 | 46.74331 | 1.04284 | 34982 ft | 462 kts | 183° |
| 2026-05-06 18:44 | 46.67891 | 1.04017 | 34981 ft | 462 kts | 183° |
| 2026-05-06 18:45 | 46.61496 | 1.03746 | 34978 ft | 461 kts | 183° |
| 2026-05-06 18:45 | 46.55068 | 1.03477 | 34979 ft | 462 kts | 183° |
| 2026-05-06 18:46 | 46.48684 | 1.04303 | 34974 ft | 463 kts | 167° |
| 2026-05-06 18:46 | 46.42436 | 1.06431 | 34975 ft | 464 kts | 168° |
| 2026-05-06 18:47 | 46.36124 | 1.08531 | 34972 ft | 464 kts | 168° |
| 2026-05-06 18:47 | 46.29825 | 1.10617 | 34976 ft | 465 kts | 168° |
| 2026-05-06 18:48 | 46.23525 | 1.12710 | 34974 ft | 465 kts | 168° |
| 2026-05-06 18:48 | 46.17216 | 1.14804 | 34974 ft | 465 kts | 168° |
| 2026-05-06 18:49 | 46.10946 | 1.16877 | 34959 ft | 465 kts | 168° |
| 2026-05-06 18:49 | 46.04639 | 1.18955 | 34974 ft | 465 kts | 168° |
| 2026-05-06 18:50 | 45.98324 | 1.21028 | 34968 ft | 465 kts | 168° |
| 2026-05-06 18:50 | 45.93042 | 1.22757 | 34974 ft | 464 kts | 168° |
| 2026-05-06 18:51 | 45.86787 | 1.24813 | 34976 ft | 463 kts | 168° |
| 2026-05-06 18:51 | 45.80499 | 1.26877 | 34974 ft | 463 kts | 168° |
| 2026-05-06 18:52 | 45.74213 | 1.28933 | 34968 ft | 462 kts | 168° |
| 2026-05-06 18:52 | 45.67943 | 1.30977 | 34960 ft | 462 kts | 169° |
| 2026-05-06 18:53 | 45.61707 | 1.33010 | 34959 ft | 462 kts | 169° |
| 2026-05-06 18:53 | 45.55430 | 1.35041 | 34946 ft | 462 kts | 169° |
| 2026-05-06 18:54 | 45.49151 | 1.37064 | 34950 ft | 462 kts | 169° |
| 2026-05-06 18:54 | 45.42881 | 1.39088 | 34952 ft | 462 kts | 169° |
| 2026-05-06 18:55 | 45.36599 | 1.41107 | 34956 ft | 462 kts | 169° |
| 2026-05-06 18:55 | 45.30327 | 1.43119 | 34962 ft | 462 kts | 169° |
| 2026-05-06 18:56 | 45.24057 | 1.45129 | 34966 ft | 462 kts | 169° |
| 2026-05-06 18:56 | 45.17818 | 1.47127 | 34960 ft | 462 kts | 169° |
| 2026-05-06 18:57 | 45.11538 | 1.49128 | 34967 ft | 462 kts | 169° |
| 2026-05-06 18:57 | 45.05271 | 1.51119 | 34971 ft | 462 kts | 169° |
| 2026-05-06 18:58 | 44.98995 | 1.53117 | 34975 ft | 462 kts | 169° |
| 2026-05-06 18:58 | 44.92731 | 1.55099 | 34972 ft | 461 kts | 170° |
| 2026-05-06 18:59 | 44.86468 | 1.57081 | 34970 ft | 461 kts | 169° |
| 2026-05-06 18:59 | 44.80196 | 1.59073 | 34973 ft | 461 kts | 170° |
| 2026-05-06 19:00 | 44.73935 | 1.61046 | 34979 ft | 461 kts | 170° |
| 2026-05-06 19:00 | 44.67705 | 1.63000 | 34981 ft | 461 kts | 170° |
| 2026-05-06 19:01 | 44.61444 | 1.64955 | 34980 ft | 461 kts | 170° |
| 2026-05-06 19:01 | 44.55174 | 1.66908 | 34982 ft | 461 kts | 170° |
| 2026-05-06 19:02 | 44.48919 | 1.68860 | 34989 ft | 461 kts | 170° |
| 2026-05-06 19:02 | 44.42658 | 1.70819 | 34996 ft | 460 kts | 170° |
| 2026-05-06 19:03 | 44.36385 | 1.72770 | 34991 ft | 460 kts | 170° |
| 2026-05-06 19:03 | 44.30148 | 1.74703 | 34999 ft | 460 kts | 171° |
| 2026-05-06 19:04 | 44.23849 | 1.76357 | 34999 ft | 458 kts | 174° |
| 2026-05-06 19:04 | 44.17602 | 1.77557 | 34998 ft | 457 kts | 177° |
| 2026-05-06 19:05 | 44.11288 | 1.78393 | 35004 ft | 456 kts | 178° |
| 2026-05-06 19:05 | 44.04961 | 1.79131 | 35007 ft | 456 kts | 178° |
| 2026-05-06 19:06 | 43.98646 | 1.79923 | 34994 ft | 456 kts | 178° |
| 2026-05-06 19:06 | 43.92329 | 1.80770 | 35009 ft | 455 kts | 178° |
| 2026-05-06 19:07 | 43.86058 | 1.81619 | 35015 ft | 455 kts | 178° |
| 2026-05-06 19:07 | 43.79748 | 1.82455 | 35009 ft | 455 kts | 179° |
| 2026-05-06 19:08 | 43.73445 | 1.83280 | 35020 ft | 454 kts | 179° |
| 2026-05-06 19:08 | 43.67161 | 1.84099 | 35026 ft | 454 kts | 179° |
| 2026-05-06 19:09 | 43.60871 | 1.84918 | 35012 ft | 453 kts | 179° |
| 2026-05-06 19:09 | 43.54629 | 1.85745 | 35023 ft | 453 kts | 179° |
| 2026-05-06 19:10 | 43.48359 | 1.86567 | 35025 ft | 453 kts | 179° |
| 2026-05-06 19:10 | 43.42092 | 1.87377 | 35027 ft | 452 kts | 179° |
| 2026-05-06 19:11 | 43.35823 | 1.88179 | 35018 ft | 452 kts | 179° |
| 2026-05-06 19:11 | 43.29574 | 1.88990 | 35028 ft | 451 kts | 179° |
| 2026-05-06 19:12 | 43.23321 | 1.89809 | 35036 ft | 451 kts | 179° |
| 2026-05-06 19:12 | 43.17083 | 1.90619 | 35027 ft | 450 kts | 180° |
| 2026-05-06 19:13 | 43.10843 | 1.91422 | 35030 ft | 449 kts | 180° |
| 2026-05-06 19:13 | 43.04658 | 1.92212 | 35037 ft | 448 kts | 180° |
| 2026-05-06 19:14 | 42.98445 | 1.93003 | 35016 ft | 447 kts | 180° |
| 2026-05-06 19:14 | 42.92263 | 1.93785 | 35041 ft | 446 kts | 180° |
| 2026-05-06 19:15 | 42.86065 | 1.94586 | 35047 ft | 445 kts | 180° |
| 2026-05-06 19:15 | 42.79914 | 1.95382 | 35048 ft | 444 kts | 180° |
| 2026-05-06 19:16 | 42.73749 | 1.96164 | 35039 ft | 444 kts | 180° |
| 2026-05-06 19:16 | 42.67619 | 1.96940 | 35044 ft | 444 kts | 180° |
| 2026-05-06 19:17 | 42.61508 | 1.97713 | 35042 ft | 443 kts | 180° |
| 2026-05-06 19:17 | 42.55380 | 1.98491 | 35027 ft | 442 kts | 180° |
| 2026-05-06 19:18 | 42.49246 | 1.99263 | 35026 ft | 442 kts | 180° |
| 2026-05-06 19:18 | 42.43118 | 2.00039 | 35026 ft | 442 kts | 180° |
| 2026-05-06 19:19 | 42.36996 | 2.00817 | 35000 ft | 441 kts | 181° |
| 2026-05-06 19:19 | 42.30882 | 2.01485 | 35002 ft | 439 kts | 182° |
| 2026-05-06 19:20 | 42.24820 | 2.02014 | 35001 ft | 439 kts | 182° |
| 2026-05-06 19:20 | 42.18731 | 2.02546 | 35001 ft | 439 kts | 182° |
| 2026-05-06 19:21 | 42.12636 | 2.03119 | 34994 ft | 438 kts | 182° |
| 2026-05-06 19:21 | 42.06544 | 2.03705 | 34990 ft | 438 kts | 182° |
| 2026-05-06 19:22 | 42.00471 | 2.04284 | 34997 ft | 437 kts | 182° |
| 2026-05-06 19:22 | 41.94430 | 2.04850 | 34976 ft | 437 kts | 183° |
| 2026-05-06 19:23 | 41.88367 | 2.05417 | 34984 ft | 437 kts | 183° |
| 2026-05-06 19:23 | 41.82300 | 2.05981 | 34991 ft | 436 kts | 183° |
| 2026-05-06 19:24 | 41.76237 | 2.06545 | 34993 ft | 436 kts | 183° |
| 2026-05-06 19:24 | 41.70186 | 2.07106 | 34984 ft | 435 kts | 183° |
| 2026-05-06 19:25 | 41.64153 | 2.07678 | 34993 ft | 434 kts | 183° |
| 2026-05-06 19:25 | 41.58159 | 2.08247 | 34995 ft | 434 kts | 183° |
| 2026-05-06 19:26 | 41.52144 | 2.08803 | 34980 ft | 433 kts | 183° |
| 2026-05-06 19:26 | 41.46126 | 2.09356 | 34988 ft | 433 kts | 183° |
| 2026-05-06 19:27 | 41.40116 | 2.09905 | 34993 ft | 433 kts | 183° |
| 2026-05-06 19:27 | 41.34105 | 2.10456 | 34994 ft | 432 kts | 183° |
| 2026-05-06 19:28 | 41.28087 | 2.11084 | 34979 ft | 434 kts | 182° |
| 2026-05-06 19:28 | 41.22136 | 2.12071 | 34990 ft | 436 kts | 180° |
| 2026-05-06 19:29 | 41.16131 | 2.13201 | 34992 ft | 436 kts | 180° |
| 2026-05-06 19:29 | 41.10119 | 2.14271 | 34970 ft | 435 kts | 181° |
| 2026-05-06 19:30 | 41.04108 | 2.15268 | 34979 ft | 435 kts | 181° |
| 2026-05-06 19:30 | 40.98109 | 2.16243 | 34979 ft | 435 kts | 181° |
| 2026-05-06 19:31 | 40.92103 | 2.17237 | 34978 ft | 435 kts | 181° |
| 2026-05-06 19:31 | 40.83136 | 2.18732 | 34971 ft | 434 kts | 181° |
| 2026-05-06 19:32 | 40.77143 | 2.19723 | 34981 ft | 434 kts | 181° |
| 2026-05-06 19:32 | 40.71154 | 2.20709 | 34981 ft | 434 kts | 181° |
| 2026-05-06 19:33 | 40.65156 | 2.21697 | 34979 ft | 434 kts | 181° |
| 2026-05-06 19:33 | 40.59167 | 2.22691 | 34980 ft | 434 kts | 181° |
| 2026-05-06 19:34 | 40.53171 | 2.23679 | 34983 ft | 434 kts | 181° |
| 2026-05-06 19:34 | 40.47186 | 2.24654 | 34982 ft | 434 kts | 181° |
| 2026-05-06 19:35 | 40.41185 | 2.25644 | 34969 ft | 434 kts | 180° |
| 2026-05-06 19:35 | 40.35193 | 2.27024 | 34983 ft | 438 kts | 177° |
| 2026-05-06 19:36 | 40.29269 | 2.27867 | 34993 ft | 416 kts | 195° |
| 2026-05-06 19:36 | 40.26520 | 2.26967 | 34986 ft | 401 kts | 209° |
| 2026-05-06 19:36 | 40.24038 | 2.25380 | 34984 ft | 396 kts | 213° |
| 2026-05-06 19:37 | 40.19169 | 2.22063 | 34957 ft | 396 kts | 213° |
| 2026-05-06 19:37 | 40.15108 | 2.19279 | 34969 ft | 397 kts | 213° |
| 2026-05-06 19:38 | 40.09385 | 2.15368 | 34978 ft | 397 kts | 213° |
| 2026-05-06 19:38 | 40.04480 | 2.12038 | 34982 ft | 397 kts | 213° |
| 2026-05-06 19:39 | 39.99574 | 2.08708 | 34960 ft | 397 kts | 213° |
| 2026-05-06 19:39 | 39.95495 | 2.05940 | 34966 ft | 398 kts | 213° |
| 2026-05-06 19:40 | 39.89788 | 2.02075 | 34971 ft | 398 kts | 213° |
| 2026-05-06 19:40 | 39.84862 | 1.98751 | 34976 ft | 398 kts | 213° |
| 2026-05-06 19:41 | 39.80769 | 1.95986 | 34981 ft | 399 kts | 213° |
| 2026-05-06 19:41 | 39.75831 | 1.92660 | 34040 ft | 404 kts | 213° |
| 2026-05-06 19:42 | 39.73321 | 1.90972 | 32983 ft | 409 kts | 213° |
| 2026-05-06 19:42 | 39.70785 | 1.89271 | 32037 ft | 411 kts | 212° |
| 2026-05-06 19:42 | 39.68237 | 1.87565 | 31075 ft | 413 kts | 212° |
| 2026-05-06 19:42 | 39.65671 | 1.85848 | 30096 ft | 416 kts | 212° |
| 2026-05-06 19:43 | 39.63089 | 1.84114 | 28879 ft | 420 kts | 212° |
| 2026-05-06 19:43 | 39.60473 | 1.82357 | 27546 ft | 427 kts | 211° |
| 2026-05-06 19:43 | 39.57829 | 1.80586 | 26767 ft | 423 kts | 211° |
| 2026-05-06 19:43 | 39.55255 | 1.78875 | 26275 ft | 414 kts | 211° |
| 2026-05-06 19:44 | 39.52722 | 1.77193 | 25701 ft | 408 kts | 211° |
| 2026-05-06 19:44 | 39.50213 | 1.75524 | 25135 ft | 402 kts | 211° |
| 2026-05-06 19:44 | 39.47739 | 1.73875 | 24574 ft | 397 kts | 211° |
| 2026-05-06 19:44 | 39.45305 | 1.72254 | 23676 ft | 394 kts | 210° |
| 2026-05-06 19:45 | 39.42886 | 1.70643 | 22568 ft | 388 kts | 210° |
| 2026-05-06 19:45 | 39.40503 | 1.69055 | 21481 ft | 382 kts | 210° |
| 2026-05-06 19:45 | 39.38147 | 1.67483 | 20448 ft | 377 kts | 210° |
| 2026-05-06 19:45 | 39.35830 | 1.65938 | 19461 ft | 372 kts | 210° |
| 2026-05-06 19:46 | 39.33541 | 1.64416 | 18521 ft | 368 kts | 210° |
| 2026-05-06 19:46 | 39.31291 | 1.62926 | 17526 ft | 359 kts | 210° |
| 2026-05-06 19:46 | 39.29049 | 1.61439 | 16516 ft | 356 kts | 210° |
| 2026-05-06 19:46 | 39.26857 | 1.59985 | 15561 ft | 352 kts | 209° |
| 2026-05-06 19:47 | 39.24688 | 1.58548 | 14646 ft | 349 kts | 209° |
| 2026-05-06 19:47 | 39.22552 | 1.57136 | 13776 ft | 345 kts | 209° |
| 2026-05-06 19:47 | 39.20410 | 1.55721 | 12793 ft | 342 kts | 209° |
| 2026-05-06 19:47 | 39.18315 | 1.54338 | 11941 ft | 340 kts | 208° |
| 2026-05-06 19:48 | 39.16196 | 1.52936 | 11410 ft | 342 kts | 209° |
| 2026-05-06 19:48 | 39.14087 | 1.51541 | 10901 ft | 339 kts | 209° |
| 2026-05-06 19:48 | 39.12063 | 1.50205 | 10746 ft | 324 kts | 209° |
| 2026-05-06 19:48 | 39.10104 | 1.48919 | 10612 ft | 309 kts | 209° |
| 2026-05-06 19:49 | 39.08225 | 1.47687 | 10443 ft | 298 kts | 209° |
| 2026-05-06 19:49 | 39.06398 | 1.46484 | 10172 ft | 292 kts | 210° |
| 2026-05-06 19:49 | 39.04726 | 1.45031 | 9923 ft | 289 kts | 223° |
| 2026-05-06 19:49 | 39.03345 | 1.43178 | 9791 ft | 287 kts | 234° |
| 2026-05-06 19:50 | 39.02159 | 1.41117 | 9654 ft | 287 kts | 236° |
| 2026-05-06 19:50 | 39.00971 | 1.39057 | 9526 ft | 287 kts | 235° |
| 2026-05-06 19:50 | 38.99780 | 1.37005 | 9368 ft | 287 kts | 235° |
| 2026-05-06 19:50 | 38.98581 | 1.34942 | 8880 ft | 289 kts | 235° |
| 2026-05-06 19:51 | 38.97381 | 1.32882 | 8451 ft | 287 kts | 234° |
| 2026-05-06 19:51 | 38.96213 | 1.30878 | 8098 ft | 270 kts | 234° |
| 2026-05-06 19:51 | 38.95116 | 1.28998 | 7651 ft | 258 kts | 235° |
| 2026-05-06 19:51 | 38.94052 | 1.27170 | 7084 ft | 253 kts | 234° |
| 2026-05-06 19:52 | 38.92999 | 1.25357 | 6550 ft | 253 kts | 233° |
| 2026-05-06 19:52 | 38.91945 | 1.23543 | 6077 ft | 253 kts | 233° |
| 2026-05-06 19:52 | 38.90893 | 1.21734 | 5623 ft | 253 kts | 233° |
| 2026-05-06 19:52 | 38.89819 | 1.19964 | 5187 ft | 248 kts | 226° |
| 2026-05-06 19:53 | 38.88547 | 1.18591 | 4853 ft | 231 kts | 211° |
| 2026-05-06 19:53 | 38.87134 | 1.17678 | 4291 ft | 226 kts | 197° |
| 2026-05-06 19:53 | 38.85634 | 1.17201 | 4013 ft | 217 kts | 188° |
| 2026-05-06 19:53 | 38.84230 | 1.16829 | 3956 ft | 196 kts | 189° |
| 2026-05-06 19:54 | 38.82909 | 1.16662 | 3868 ft | 188 kts | 172° |
| 2026-05-06 19:54 | 38.81701 | 1.17213 | 3545 ft | 183 kts | 146° |
| 2026-05-06 19:54 | 38.80846 | 1.18373 | 3215 ft | 179 kts | 121° |
| 2026-05-06 19:54 | 38.80486 | 1.19889 | 2792 ft | 180 kts | 94° |
| 2026-05-06 19:55 | 38.80712 | 1.21469 | 2512 ft | 182 kts | 67° |
| 2026-05-06 19:55 | 38.81287 | 1.22874 | 2272 ft | 172 kts | 64° |
| 2026-05-06 19:55 | 38.81840 | 1.24197 | 2046 ft | 164 kts | 63° |
| 2026-05-06 19:55 | 38.82372 | 1.25476 | 1832 ft | 163 kts | 63° |
| 2026-05-06 19:56 | 38.82901 | 1.26746 | 1618 ft | 160 kts | 63° |
| 2026-05-06 19:56 | 38.83426 | 1.28010 | 1407 ft | 160 kts | 63° |
| 2026-05-06 19:56 | 38.83944 | 1.29255 | 1177 ft | 152 kts | 63° |
| 2026-05-06 19:56 | 38.84421 | 1.30403 | 988 ft | 143 kts | 64° |
| 2026-05-06 19:57 | 38.84888 | 1.31528 | 799 ft | 142 kts | 65° |
| 2026-05-06 19:57 | 38.85353 | 1.32651 | 616 ft | 143 kts | 64° |
| 2026-05-06 19:57 | 38.85819 | 1.33774 | 422 ft | 143 kts | 64° |
| 2026-05-06 19:57 | 38.86283 | 1.34893 | 246 ft | 142 kts | 63° |
| 2026-05-06 19:58 | 38.86740 | 1.35994 | 51 ft | 139 kts | 63° |
| 2026-05-06 19:58 | 38.87173 | 1.37042 | 11 ft | 119 kts | 62° |
| 2026-05-06 19:58 | 38.87434 | 1.37669 | 9 ft | 46 kts | 60° |
| 2026-05-06 19:58 | 38.87573 | 1.37848 | 11 ft | 22 kts | 33° |
| 2026-05-06 19:59 | 38.87671 | 1.37893 | 9 ft | 12 kts | 320° |
| 2026-05-06 19:59 | 38.87671 | 1.37793 | 9 ft | 13 kts | 242° |
| 2026-05-06 19:59 | 38.87628 | 1.37689 | 9 ft | 14 kts | 242° |
| 2026-05-06 19:59 | 38.87579 | 1.37576 | 9 ft | 15 kts | 240° |
| 2026-05-06 20:00 | 38.87526 | 1.37453 | 10 ft | 16 kts | 242° |
| 2026-05-06 20:00 | 38.87472 | 1.37318 | 9 ft | 18 kts | 243° |
| 2026-05-06 20:00 | 38.87415 | 1.37175 | 9 ft | 19 kts | 242° |
| 2026-05-06 20:00 | 38.87352 | 1.37024 | 9 ft | 20 kts | 242° |
| 2026-05-06 20:01 | 38.87303 | 1.36879 | 9 ft | 13 kts | 281° |
| 2026-05-06 20:01 | 38.87354 | 1.36831 | 9 ft | 9 kts | 331° |
| 2026-05-06 20:01 | 38.87417 | 1.36798 | 8 ft | 10 kts | 4° |
| 2026-05-06 20:01 | 38.87464 | 1.36864 | 8 ft | 11 kts | 61° |
| 2026-05-06 20:02 | 38.87503 | 1.36955 | 8 ft | 12 kts | 61° |
| 2026-05-06 20:02 | 38.87538 | 1.37014 | 8 ft | 6 kts | 26° |
| 2026-05-06 20:02 | 38.87581 | 1.37000 | 8 ft | 3 kts | 332° |
| 2026-05-06 20:02 | 38.87592 | 1.36992 | 8 ft | 0 kts | 332° |